Time;durP1;ratioP1;P1;durP2;ratioP2;P2;SDS_P1;SDS_P2;PMS_P1;PMS_P2;Temp;Humidity;BMP_temperature;BMP_pressure;BME280_temperature;BME280_humidity;BME280_pressure;Samples;Min_cycle;Max_cycle;Signal;HPM_P1;HPM_P2
2023/02/21 02:14:50;;;;;;;3.30;1.80;;;;;;;5.00;51.77;95206.72;5106833;28;20050;-80
2023/02/21 02:17:21;;;;;;;4.22;2.10;;;;;;;5.02;51.68;95203.59;5106435;28;20039;-80
2023/02/21 02:20:01;;;;;;;3.33;1.80;;;;;;;5.07;51.45;95206.69;5109180;28;20057;-79
2023/02/21 02:22:55;;;;;;;3.67;2.22;;;;;;;5.13;51.35;95207.06;5106452;28;20036;-79
2023/02/21 02:25:59;;;;;;;3.30;2.00;;;;;;;5.15;51.46;95210.16;5105760;28;20100;-79
2023/02/21 02:29:05;;;;;;;4.82;2.03;;;;;;;5.16;51.38;95209.00;5104206;28;20032;-80
2023/02/21 02:31:34;;;;;;;4.03;2.03;;;;;;;5.26;51.04;95207.41;5109915;28;20090;-78
2023/02/21 02:34:30;;;;;;;4.28;2.08;;;;;;;5.35;50.77;95198.81;5105827;28;20123;-78
2023/02/21 02:37:05;;;;;;;4.88;2.17;;;;;;;5.49;50.43;95199.50;5105470;28;20031;-77
2023/02/21 02:39:40;;;;;;;6.00;2.25;;;;;;;5.46;50.44;95199.53;5105020;28;20030;-78
2023/02/21 02:42:42;;;;;;;3.92;1.70;;;;;;;5.52;50.39;95204.19;5103796;28;20023;-77
2023/02/21 02:45:22;;;;;;;3.10;1.80;;;;;;;5.49;50.45;95191.31;5105962;28;20114;-80
2023/02/21 02:47:54;;;;;;;3.13;2.10;;;;;;;5.49;50.56;95196.00;5105864;28;20036;-78
2023/02/21 02:50:21;;;;;;;4.25;1.92;;;;;;;5.48;50.41;95197.97;5103978;28;20398;-78
2023/02/21 02:52:55;;;;;;;5.78;2.05;;;;;;;5.45;50.52;95192.50;5104076;28;20164;-79
2023/02/21 02:55:25;;;;;;;4.85;2.47;;;;;;;5.45;50.73;95201.50;5105229;28;20035;-80
2023/02/21 02:57:51;;;;;;;4.85;2.63;;;;;;;5.47;50.83;95201.84;5103975;28;20576;-78
2023/02/21 03:00:17;;;;;;;6.18;2.20;;;;;;;5.42;50.72;95185.13;5104608;28;20493;-77
2023/02/21 03:02:52;;;;;;;8.30;2.35;;;;;;;5.37;50.91;95193.72;5086628;28;20037;-79
2023/02/21 03:05:42;;;;;;;3.97;1.60;;;;;;;5.38;50.93;95195.28;5106146;28;20045;-77
2023/02/21 03:08:13;;;;;;;2.70;1.50;;;;;;;5.27;51.24;95187.16;5103281;28;20468;-77
2023/02/21 03:10:56;;;;;;;2.10;1.33;;;;;;;5.22;51.30;95190.31;5104923;28;20036;-78
2023/02/21 03:13:29;;;;;;;3.53;1.52;;;;;;;5.15;51.39;95198.50;5104030;28;20076;-78
2023/02/21 03:16:35;;;;;;;3.25;1.80;;;;;;;5.16;51.42;95179.03;5108698;28;20032;-78
2023/02/21 03:19:09;;;;;;;4.38;2.00;;;;;;;5.29;51.24;95182.09;5090940;28;20051;-79
2023/02/21 03:22:01;;;;;;;;;;;;;;;5.39;51.01;95183.19;5104539;28;20031;-77
2023/02/21 03:24:27;;;;;;;3.05;1.92;;;;;;;5.35;51.07;95171.56;5103287;28;19967;-79
2023/02/21 03:26:56;;;;;;;4.53;1.90;;;;;;;5.40;50.90;95171.91;5103811;28;20099;-78
2023/02/21 03:29:21;;;;;;;3.08;1.88;;;;;;;5.47;50.69;95171.88;5103479;28;20020;-79
2023/02/21 03:34:36;;;;;;;3.80;2.28;;;;;;;5.66;50.32;95162.41;5105194;28;20131;-77
2023/02/21 03:37:02;;;;;;;3.40;2.08;;;;;;;5.73;49.95;95167.03;5114181;28;20057;-79
2023/02/21 03:39:28;;;;;;;3.67;2.08;;;;;;;5.75;49.72;95170.94;5104667;28;20020;-78
2023/02/21 03:41:53;;;;;;;6.35;2.22;;;;;;;5.74;49.80;95176.78;5103015;28;20073;-78
2023/02/21 03:44:18;;;;;;;7.50;2.28;;;;;;;5.82;49.54;95179.06;5103976;28;20489;-78
2023/02/21 03:46:44;;;;;;;4.35;2.17;;;;;;;5.86;49.30;95182.53;5107087;28;20183;-78
2023/02/21 03:49:09;;;;;;;4.95;2.53;;;;;;;5.90;48.83;95185.22;5111138;28;20478;-81
2023/02/21 03:51:36;;;;;;;6.03;2.60;;;;;;;5.86;49.15;95187.22;5111028;28;20072;-79
2023/02/21 03:54:02;;;;;;;5.45;2.38;;;;;;;5.85;48.99;95189.19;5109214;28;20121;-78
2023/02/21 03:56:27;;;;;;;4.75;2.35;;;;;;;5.81;49.19;95196.59;5109124;28;20028;-79
2023/02/21 03:58:52;;;;;;;3.72;2.20;;;;;;;5.72;49.21;95190.81;5106717;28;20024;-77
2023/02/21 04:01:18;;;;;;;8.00;2.97;;;;;;;5.56;49.38;95196.75;5107393;28;20032;-76
2023/02/21 04:03:43;;;;;;;5.75;2.67;;;;;;;5.41;49.75;95191.78;5107624;28;20504;-78
2023/02/21 04:06:09;;;;;;;3.83;1.90;;;;;;;5.47;49.85;95201.84;5106771;28;20027;-78
2023/02/21 04:08:34;;;;;;;9.10;3.22;;;;;;;5.45;49.90;95187.06;5089186;28;20426;-79
2023/02/21 04:11:00;;;;;;;7.53;2.40;;;;;;;5.44;49.96;95193.69;5111324;28;20042;-79
2023/02/21 04:13:25;;;;;;;5.35;2.88;;;;;;;5.30;50.08;95184.41;5079456;28;20027;-78
2023/02/21 04:15:50;;;;;;;7.22;3.33;;;;;;;5.31;50.21;95193.38;5124768;28;20035;-78
2023/02/21 04:18:16;;;;;;;9.27;4.40;;;;;;;5.25;50.62;95194.94;5125472;28;20035;-78
2023/02/21 04:20:41;;;;;;;9.40;5.25;;;;;;;5.17;50.60;95204.34;5111230;28;20023;-79
2023/02/21 04:23:06;;;;;;;9.90;5.65;;;;;;;5.15;50.70;95201.22;5108987;27;20273;-79
2023/02/21 04:25:32;;;;;;;8.73;4.80;;;;;;;5.11;50.78;95216.81;5105897;28;20093;-79
2023/02/21 04:27:57;;;;;;;8.27;4.38;;;;;;;5.01;51.19;95223.84;5107836;28;20028;-77
2023/02/21 04:30:23;;;;;;;5.65;2.95;;;;;;;5.00;51.23;95220.34;5106196;28;20023;-78
2023/02/21 04:32:49;;;;;;;8.15;2.97;;;;;;;4.93;51.18;95219.56;5107710;28;20039;-78
2023/02/21 04:35:14;;;;;;;3.60;2.28;;;;;;;4.94;51.63;95230.09;5089255;28;20374;-79
2023/02/21 04:37:40;;;;;;;6.70;2.53;;;;;;;4.92;51.59;95220.75;5088964;28;20035;-78
2023/02/21 04:40:07;;;;;;;5.90;2.80;;;;;;;4.93;51.65;95230.47;5109559;27;20051;-80
2023/02/21 04:42:32;;;;;;;4.68;2.78;;;;;;;4.92;51.68;95226.19;5116247;28;20044;-77
2023/02/21 04:44:58;;;;;;;5.25;3.03;;;;;;;4.92;51.33;95224.25;5108534;28;20456;-79
2023/02/21 04:47:23;;;;;;;7.93;3.35;;;;;;;4.98;51.36;95228.13;5107206;28;20124;-80
2023/02/21 04:49:51;;;;;;;4.75;2.45;;;;;;;4.92;51.47;95223.47;5106117;28;20103;-79
2023/02/21 04:52:19;;;;;;;5.03;2.67;;;;;;;4.96;51.28;95221.53;5105832;28;20035;-79
2023/02/21 04:54:45;;;;;;;6.65;2.97;;;;;;;4.93;51.46;95223.09;5105184;28;20145;-79
2023/02/21 04:57:11;;;;;;;8.13;3.47;;;;;;;4.97;51.47;95212.19;5106580;28;20504;-78
2023/02/21 04:59:37;;;;;;;5.78;2.80;;;;;;;4.98;51.15;95208.28;5088248;28;20023;-79
2023/02/21 05:02:04;;;;;;;5.63;2.83;;;;;;;5.04;50.74;95193.84;5107219;28;20122;-80
2023/02/21 05:04:30;;;;;;;7.22;2.45;;;;;;;5.14;50.64;95194.22;5105612;28;20081;-78
2023/02/21 05:06:58;;;;;;;8.98;3.90;;;;;;;5.16;50.54;95194.59;5109262;28;20031;-79
2023/02/21 05:09:23;;;;;;;10.55;4.25;;;;;;;5.21;50.35;95191.44;5088837;28;20038;-79
2023/02/21 05:11:48;;;;;;;6.03;3.40;;;;;;;5.24;50.30;95182.50;5106629;28;20024;-79
2023/02/21 05:14:16;;;;;;;8.30;3.15;;;;;;;5.29;50.14;95195.72;5107223;28;20123;-80
2023/02/21 05:16:41;;;;;;;8.77;3.70;;;;;;;5.28;50.31;95188.72;5106355;28;20028;-77
2023/02/21 05:19:08;;;;;;;7.20;4.55;;;;;;;5.33;50.25;95175.47;5105246;28;20032;-76
2023/02/21 05:21:37;;;;;;;6.25;3.40;;;;;;;5.42;49.80;95183.19;5104826;28;20027;-77
2023/02/21 05:24:03;;;;;;;7.65;3.67;;;;;;;5.53;49.71;95180.41;5105286;28;20170;-77
2023/02/21 05:26:36;;;;;;;9.07;3.55;;;;;;;5.59;49.53;95185.03;5106248;28;20157;-78
2023/02/21 05:29:02;;;;;;;6.57;4.22;;;;;;;5.63;49.51;95185.03;5104482;28;20092;-78
2023/02/21 05:31:28;;;;;;;8.25;4.10;;;;;;;5.68;49.29;95183.81;5105347;28;20119;-76
2023/02/21 05:33:53;;;;;;;10.00;5.72;;;;;;;5.67;49.30;95185.75;5105827;28;20020;-77
2023/02/21 05:36:23;;;;;;;12.20;6.28;;;;;;;5.71;48.93;95185.75;5105125;28;20115;-77
2023/02/21 05:38:50;;;;;;;12.05;5.88;;;;;;;5.72;49.08;95192.75;5105629;28;20040;-78
2023/02/21 05:41:18;;;;;;;13.93;5.88;;;;;;;5.78;48.75;95191.16;5105240;28;20218;-79
2023/02/21 05:43:46;;;;;;;12.05;5.30;;;;;;;5.75;48.82;95200.16;5105927;28;20489;-78
2023/02/21 05:46:29;;;;;;;7.15;4.70;;;;;;;5.72;48.95;95193.53;5107404;28;20031;-78
2023/02/21 05:48:56;;;;;;;9.80;5.10;;;;;;;5.68;49.05;95205.63;5093263;28;20028;-80
2023/02/21 05:51:22;;;;;;;10.52;5.78;;;;;;;5.67;48.97;95195.91;5104659;28;20323;-78
2023/02/21 05:53:48;;;;;;;11.48;5.20;;;;;;;5.78;48.77;95197.38;5104961;28;20019;-79
2023/02/21 05:56:14;;;;;;;10.27;5.05;;;;;;;5.80;48.59;95208.69;5104518;28;20072;-80
2023/02/21 05:58:39;;;;;;;9.77;5.82;;;;;;;5.85;48.58;95208.28;5105360;28;20027;-79
2023/02/21 06:01:05;;;;;;;13.70;5.72;;;;;;;5.94;48.53;95220.72;5104967;28;20583;-79
2023/02/21 06:03:31;;;;;;;15.30;6.30;;;;;;;5.90;48.51;95207.06;5090921;28;20474;-77
2023/02/21 06:05:56;;;;;;;17.15;6.53;;;;;;;6.04;48.27;95225.34;5106144;28;20458;-77
2023/02/21 06:08:21;;;;;;;15.07;5.75;;;;;;;6.09;48.32;95227.66;5104112;27;20035;-78
2023/02/21 06:10:47;;;;;;;9.98;5.25;;;;;;;6.12;48.18;95230.34;5105551;28;20039;-78
2023/02/21 06:13:13;;;;;;;13.02;5.97;;;;;;;6.15;48.38;95214.34;5104054;28;20409;-79
2023/02/21 06:15:38;;;;;;;14.35;5.97;;;;;;;6.17;48.19;95222.91;5104437;28;20031;-80
2023/02/21 06:18:03;;;;;;;15.73;6.20;;;;;;;6.22;47.93;95225.97;5103623;28;20036;-79
2023/02/21 06:20:29;;;;;;;12.45;5.72;;;;;;;6.35;47.98;95227.03;5106242;28;20037;-80
2023/02/21 06:22:54;;;;;;;8.27;4.88;;;;;;;6.44;47.69;95225.81;5103966;28;20387;-78
2023/02/21 06:25:21;;;;;;;16.25;4.13;;;;;;;6.42;47.94;95223.47;5104896;28;20044;-78
2023/02/21 06:27:46;;;;;;;9.88;4.40;;;;;;;6.41;47.97;95226.63;5104086;28;20024;-78
2023/02/21 06:30:12;;;;;;;8.75;4.55;;;;;;;6.47;47.80;95227.72;5086781;28;20488;-78
2023/02/21 06:32:38;;;;;;;6.38;3.90;;;;;;;6.53;47.54;95229.63;5088344;28;20051;-77
2023/02/21 06:35:04;;;;;;;11.07;6.18;;;;;;;6.59;47.63;95225.28;5119530;28;20023;-77
2023/02/21 06:37:29;;;;;;;9.18;4.43;;;;;;;6.65;47.25;95226.41;5091580;28;20044;-78
2023/02/21 06:39:55;;;;;;;9.50;4.53;;;;;;;6.82;47.21;95234.84;5106160;28;20039;-77
2023/02/21 06:42:22;;;;;;;8.57;3.90;;;;;;;7.01;46.70;95237.00;5087236;28;20443;-78
2023/02/21 06:44:48;;;;;;;8.13;4.05;;;;;;;7.16;46.41;95230.19;5106077;28;20019;-77
2023/02/21 06:47:13;;;;;;;7.03;4.25;;;;;;;7.27;46.08;95223.81;5105694;28;20077;-78
2023/02/21 06:49:39;;;;;;;10.93;4.85;;;;;;;7.35;46.00;95226.09;5087255;28;20198;-80
2023/02/21 06:52:05;;;;;;;12.30;4.65;;;;;;;7.46;45.82;95223.22;5111528;28;20032;-77
2023/02/21 06:54:30;;;;;;;13.00;4.35;;;;;;;7.66;45.47;95234.31;5107138;28;20028;-81
2023/02/21 06:56:56;;;;;;;7.15;4.00;;;;;;;7.73;45.55;95239.66;5108398;28;20063;-78
2023/02/21 06:59:22;;;;;;;8.23;3.72;;;;;;;7.99;45.03;95230.72;5106910;28;20402;-80
2023/02/21 07:01:48;;;;;;;8.02;4.55;;;;;;;8.15;44.66;95221.13;5104910;28;20031;-79
2023/02/21 07:04:13;;;;;;;6.97;3.70;;;;;;;8.38;44.24;95229.41;5103787;28;20040;-80
2023/02/21 07:06:38;;;;;;;9.35;4.07;;;;;;;8.64;43.74;95233.28;5104189;28;20362;-79
2023/02/21 07:09:04;;;;;;;9.63;4.38;;;;;;;8.86;43.31;95235.66;5104071;28;20409;-78
2023/02/21 07:11:31;;;;;;;11.55;4.07;;;;;;;9.07;42.83;95229.03;5104636;28;20387;-79
2023/02/21 07:13:58;;;;;;;11.30;4.50;;;;;;;9.28;42.18;95234.88;5103742;28;20036;-80
2023/02/21 07:16:24;;;;;;;7.10;3.60;;;;;;;9.40;41.84;95227.22;5105697;28;20027;-79
2023/02/21 07:18:49;;;;;;;7.30;3.70;;;;;;;9.47;41.70;95233.34;5108278;28;20442;-80
2023/02/21 07:21:15;;;;;;;7.72;2.88;;;;;;;9.52;41.71;95234.84;5113379;28;20035;-80
2023/02/21 07:23:45;;;;;;;11.75;3.70;;;;;;;9.51;41.66;95233.25;5112132;28;20028;-78
2023/02/21 07:26:11;;;;;;;6.15;3.30;;;;;;;9.62;41.55;95228.34;5108233;28;20155;-79
2023/02/21 07:28:36;;;;;;;7.85;2.88;;;;;;;9.77;41.06;95229.59;5108728;28;20056;-81
2023/02/21 07:31:02;;;;;;;5.13;2.63;;;;;;;9.79;41.31;95221.69;5109374;28;20699;-78
2023/02/21 07:33:28;;;;;;;7.95;3.00;;;;;;;9.94;41.21;95221.41;5108065;28;20111;-80
2023/02/21 07:35:53;;;;;;;9.55;3.72;;;;;;;9.98;41.03;95217.38;5090144;28;20027;-80
2023/02/21 07:38:29;;;;;;;7.60;2.90;;;;;;;10.01;41.07;95213.78;5109763;28;20030;-80
2023/02/21 07:40:56;;;;;;;9.27;3.55;;;;;;;10.19;40.65;95209.84;5107936;28;20028;-79
2023/02/21 07:43:26;;;;;;;9.32;3.00;;;;;;;10.26;40.60;95207.72;5107241;28;20044;-79
2023/02/21 07:45:51;;;;;;;7.32;2.90;;;;;;;10.44;40.22;95209.31;5107905;28;20118;-80
2023/02/21 07:48:17;;;;;;;10.25;3.83;;;;;;;10.58;39.95;95208.97;5090669;28;20106;-79
2023/02/21 07:50:43;;;;;;;12.32;4.30;;;;;;;10.63;39.98;95203.72;5109796;28;20528;-78
2023/02/21 07:53:10;;;;;;;9.40;4.28;;;;;;;10.76;39.45;95189.28;5113594;28;20034;-79
2023/02/21 07:55:35;;;;;;;14.18;4.85;;;;;;;10.80;39.15;95198.22;5110807;28;20488;-80
2023/02/21 07:58:01;;;;;;;10.30;4.43;;;;;;;10.95;39.04;95191.13;5105226;28;20059;-80
2023/02/21 08:00:26;;;;;;;10.55;4.93;;;;;;;11.04;38.82;95191.28;5108477;28;20107;-80
2023/02/21 08:02:52;;;;;;;10.48;5.22;;;;;;;11.12;38.67;95178.88;5109388;27;20029;-80
2023/02/21 08:05:18;;;;;;;10.50;5.43;;;;;;;11.22;38.64;95188.03;5090404;28;20053;-79
2023/02/21 08:07:43;;;;;;;14.63;6.03;;;;;;;11.36;38.39;95187.66;5109081;28;20062;-80
2023/02/21 08:10:09;;;;;;;16.48;6.43;;;;;;;11.51;38.22;95187.25;5108152;28;20451;-81
2023/02/21 08:12:35;;;;;;;13.85;6.38;;;;;;;11.63;37.69;95187.28;5107343;28;20028;-79
2023/02/21 08:15:00;;;;;;;21.88;6.25;;;;;;;11.79;37.51;95175.41;5108113;28;20031;-80
2023/02/21 08:17:26;;;;;;;17.80;6.32;;;;;;;12.00;37.06;95176.03;5108307;28;20434;-81
2023/02/21 08:19:51;;;;;;;11.20;5.45;;;;;;;12.13;36.80;95182.31;5108753;28;20121;-79
2023/02/21 08:22:17;;;;;;;9.55;4.57;;;;;;;12.29;36.11;95179.44;5106775;28;20496;-81
2023/02/21 08:24:43;;;;;;;6.47;3.42;;;;;;;12.52;35.09;95183.06;5106850;28;20114;-81
2023/02/21 08:27:08;;;;;;;7.32;3.58;;;;;;;12.75;34.64;95172.41;5106463;28;20111;-80
2023/02/21 08:29:33;;;;;;;6.47;3.53;;;;;;;12.96;33.18;95181.19;5089792;28;20016;-80
2023/02/21 08:31:59;;;;;;;7.68;2.83;;;;;;;13.15;32.50;95171.09;5106003;28;20059;-79
2023/02/21 08:34:28;;;;;;;6.85;2.58;;;;;;;13.42;31.19;95165.81;5107728;28;20057;-80
2023/02/21 08:36:53;;;;;;;4.15;1.90;;;;;;;13.67;30.54;95153.84;5106749;28;20035;-81
2023/02/21 08:39:19;;;;;;;3.28;1.73;;;;;;;14.16;30.24;95169.72;5107898;28;20042;-80
2023/02/21 08:41:46;;;;;;;3.35;2.20;;;;;;;14.61;29.27;95160.81;5115546;28;20023;-80
2023/02/21 08:44:16;;;;;;;4.30;2.00;;;;;;;14.99;28.58;95165.22;5124281;28;20245;-79
2023/02/21 08:46:42;;;;;;;3.33;1.67;;;;;;;15.35;28.14;95163.66;5110612;28;20027;-80
2023/02/21 08:49:08;;;;;;;2.45;1.50;;;;;;;15.61;27.00;95161.34;5113071;28;20054;-81
2023/02/21 08:51:34;;;;;;;7.35;4.43;;;;;;;15.85;26.68;95161.47;5109351;28;20024;-80
2023/02/21 08:54:00;;;;;;;3.78;2.25;;;;;;;16.19;26.06;95168.63;5089705;28;20040;-80
2023/02/21 08:56:26;;;;;;;3.22;1.80;;;;;;;16.34;26.19;95161.13;5105964;28;20034;-80
2023/02/21 08:58:53;;;;;;;4.15;1.95;;;;;;;16.50;25.92;95154.44;5106539;28;20032;-81
2023/02/21 09:01:19;;;;;;;3.42;1.90;;;;;;;16.81;25.54;95153.38;5109046;28;20024;-80
2023/02/21 09:03:44;;;;;;;3.67;1.80;;;;;;;16.98;25.54;95158.06;5122066;28;20335;-80
2023/02/21 09:06:09;;;;;;;3.63;2.17;;;;;;;17.08;25.64;95147.63;5106249;28;20024;-80
2023/02/21 09:08:36;;;;;;;3.90;2.20;;;;;;;17.32;25.22;95149.59;5106181;28;20084;-81
2023/02/21 09:11:02;;;;;;;4.47;2.92;;;;;;;17.59;25.60;95152.13;5106328;28;20019;-79
2023/02/21 09:13:28;;;;;;;8.07;3.78;;;;;;;18.28;25.18;95150.03;5088727;28;20030;-79
2023/02/21 09:15:54;;;;;;;4.93;2.40;;;;;;;18.80;23.75;95145.50;5105760;28;20478;-81
2023/02/21 09:18:20;;;;;;;6.10;2.75;;;;;;;19.00;23.10;95141.22;5107054;28;20114;-81
2023/02/21 09:20:51;;;;;;;3.65;2.25;;;;;;;19.47;22.61;95147.59;5107539;28;20497;-80
2023/02/21 09:23:20;;;;;;;3.40;1.90;;;;;;;20.10;21.43;95140.13;5108653;28;20080;-80
2023/02/21 09:25:46;;;;;;;4.55;2.35;;;;;;;20.69;21.51;95136.00;5107448;28;20028;-81
2023/02/21 09:28:13;;;;;;;8.52;3.83;;;;;;;21.31;21.60;95139.88;5106305;28;20027;-82
2023/02/21 09:30:38;;;;;;;9.82;4.75;;;;;;;22.08;21.59;95146.19;5107002;28;20047;-81
2023/02/21 09:33:03;;;;;;;9.07;4.30;;;;;;;22.77;20.61;95135.19;5106318;28;20102;-82
2023/02/21 09:35:30;;;;;;;8.57;3.30;;;;;;;23.35;18.66;95128.16;5106802;28;20049;-81
2023/02/21 09:37:57;;;;;;;5.50;2.17;;;;;;;23.94;17.87;95121.22;5105620;28;20447;-81
2023/02/21 09:40:37;;;;;;;5.07;1.75;;;;;;;24.58;16.31;95127.38;5105930;28;20102;-82
2023/02/21 09:43:08;;;;;;;2.72;1.38;;;;;;;25.12;16.12;95118.16;5107194;28;20101;-81
2023/02/21 09:45:35;;;;;;;2.95;1.60;;;;;;;25.68;15.28;95108.97;5095751;28;20029;-81
2023/02/21 09:48:05;;;;;;;3.42;1.85;;;;;;;26.37;14.82;95115.91;5105236;28;20035;-81
2023/02/21 09:50:34;;;;;;;2.65;1.40;;;;;;;26.63;13.99;95112.41;5106092;28;20024;-80
2023/02/21 09:52:59;;;;;;;3.50;2.03;;;;;;;27.01;13.58;95110.16;5105151;28;20061;-80
2023/02/21 09:55:35;;;;;;;4.93;2.00;;;;;;;27.95;13.32;95106.72;5089670;28;20467;-81
2023/02/21 09:58:01;;;;;;;3.97;1.85;;;;;;;29.07;12.30;95109.59;5105698;28;20035;-81
2023/02/21 10:00:35;;;;;;;1.38;1.02;;;;;;;29.76;11.72;95115.63;5105659;28;20034;-81
2023/02/21 10:03:15;;;;;;;3.10;1.20;;;;;;;29.64;11.59;95103.13;5088005;28;20031;-80
2023/02/21 10:05:56;;;;;;;4.20;1.60;;;;;;;30.75;10.96;95105.88;5106102;28;20124;-81
2023/02/21 10:08:35;;;;;;;4.80;2.35;;;;;;;31.90;9.95;95103.53;5102411;28;20047;-80
2023/02/21 10:11:30;;;;;;;4.45;1.27;;;;;;;33.38;9.38;95091.97;5115897;28;20657;-81
2023/02/21 10:14:18;;;;;;;4.30;1.50;;;;;;;34.25;8.34;95086.97;5104439;28;20028;-82
2023/02/21 10:17:06;;;;;;;1.90;1.30;;;;;;;35.07;7.44;95094.81;5088669;28;20027;-81
2023/02/21 10:19:38;;;;;;;3.17;1.40;;;;;;;36.07;7.47;95082.25;5100490;28;20099;-83
2023/02/21 10:22:14;;;;;;;3.20;1.55;;;;;;;36.38;7.23;95079.44;5104861;28;20116;-81
2023/02/21 10:24:39;;;;;;;3.67;1.55;;;;;;;36.99;7.31;95094.44;5105794;28;20024;-83
2023/02/21 10:27:09;;;;;;;2.60;1.35;;;;;;;37.82;6.58;95087.13;5104294;28;20038;-81
2023/02/21 10:29:43;;;;;;;2.90;1.48;;;;;;;38.08;6.50;95074.50;5105159;28;20027;-83
2023/02/21 10:32:09;;;;;;;4.30;2.08;;;;;;;38.46;5.80;95075.44;5106049;28;20537;-83
2023/02/21 10:34:34;;;;;;;3.50;1.90;;;;;;;38.80;5.91;95079.75;5104434;28;20070;-82
2023/02/21 10:37:24;;;;;;;6.13;2.28;;;;;;;38.73;6.00;95075.75;5104752;28;20023;-82
2023/02/21 10:39:58;;;;;;;2.83;1.60;;;;;;;38.95;5.93;95072.75;5112035;28;20041;-82
2023/02/21 10:42:45;;;;;;;6.57;4.38;;;;;;;39.46;5.34;95072.94;5107194;28;20056;-83
2023/02/21 10:45:12;;;;;;;6.70;3.53;;;;;;;39.98;5.27;95063.75;5105108;28;20044;-82
2023/02/21 10:48:00;;;;;;;9.52;6.40;;;;;;;40.62;5.07;95044.97;5104926;28;20024;-82
2023/02/21 10:50:55;;;;;;;9.60;4.28;;;;;;;40.82;4.91;95045.31;5107243;28;20058;-82
2023/02/21 10:53:34;;;;;;;4.68;2.88;;;;;;;40.88;4.98;95043.47;5081100;28;20049;-81
2023/02/21 10:56:18;;;;;;;6.20;3.25;;;;;;;40.96;5.08;95040.31;5108679;28;20570;-82
2023/02/21 10:58:45;;;;;;;3.63;2.00;;;;;;;41.18;5.38;95026.31;5110606;28;20036;-82
2023/02/21 11:01:13;;;;;;;4.25;2.30;;;;;;;39.92;5.44;95036.75;5108650;28;20123;-82
2023/02/21 11:03:43;;;;;;;4.18;2.33;;;;;;;40.17;5.27;95031.00;5108506;28;20016;-81
2023/02/21 11:06:09;;;;;;;2.75;1.30;;;;;;;40.16;5.35;95015.13;5109367;28;20050;-82
2023/02/21 11:08:38;;;;;;;1.70;1.20;;;;;;;40.82;5.09;95011.47;5108974;28;20482;-80
2023/02/21 11:11:04;;;;;;;3.58;1.40;;;;;;;41.65;4.99;95015.03;5108655;28;20020;-83
2023/02/21 11:13:29;;;;;;;2.22;1.20;;;;;;;41.43;4.48;95016.78;5121749;28;20027;-81
2023/02/21 11:16:19;;;;;;;2.20;1.20;;;;;;;41.75;4.30;95011.91;5116082;28;20516;-82
2023/02/21 11:18:45;;;;;;;6.65;3.92;;;;;;;41.00;4.67;95005.19;5109542;28;20016;-82
2023/02/21 11:21:16;;;;;;;5.35;2.70;;;;;;;40.90;4.90;94987.38;5109957;28;20023;-81
2023/02/21 11:23:51;;;;;;;4.15;2.20;;;;;;;40.79;5.49;94994.72;5108259;28;20031;-83
2023/02/21 11:26:17;;;;;;;4.72;1.98;;;;;;;41.21;5.32;94998.34;5108860;28;20575;-81
2023/02/21 11:28:44;;;;;;;3.28;1.83;;;;;;;40.81;4.90;94980.41;5108519;28;20110;-83
2023/02/21 11:31:27;;;;;;;3.20;1.63;;;;;;;40.09;5.15;94996.00;5107868;28;20015;-85
2023/02/21 11:34:00;;;;;;;4.38;1.50;;;;;;;39.11;5.64;94978.13;5108669;28;20393;-86
2023/02/21 11:36:31;;;;;;;4.10;2.55;;;;;;;39.56;5.30;94976.47;5112261;28;20027;-78
2023/02/21 11:39:06;;;;;;;2.50;1.25;;;;;;;39.44;5.33;94964.28;5090758;28;20505;-78
2023/02/21 11:41:31;;;;;;;3.33;1.20;;;;;;;39.78;5.59;94968.38;5090875;28;20015;-78
2023/02/21 11:43:57;;;;;;;3.72;1.35;;;;;;;39.71;5.32;94960.81;5106586;28;20040;-77
2023/02/21 11:46:45;;;;;;;2.53;1.40;;;;;;;40.11;5.48;94955.06;5107013;28;20024;-78
2023/02/21 11:49:10;;;;;;;2.45;1.20;;;;;;;40.12;5.25;94956.56;5088429;28;20122;-78
2023/02/21 11:51:42;;;;;;;1.95;1.05;;;;;;;40.06;5.42;94949.09;5107144;28;20442;-78
2023/02/21 11:54:07;;;;;;;3.35;1.50;;;;;;;39.33;5.85;94933.44;5089886;28;20039;-78
2023/02/21 11:56:35;;;;;;;4.57;1.10;;;;;;;39.48;5.51;94943.66;5106865;28;20023;-77
2023/02/21 11:59:32;;;;;;;4.10;1.52;;;;;;;38.90;5.83;94930.22;5107773;28;20050;-79
2023/02/21 12:02:29;;;;;;;3.60;2.00;;;;;;;37.20;6.73;94919.66;5088917;28;20104;-77
2023/02/21 12:05:16;;;;;;;4.25;1.90;;;;;;;37.53;6.51;94923.91;5106832;28;20107;-77
2023/02/21 12:07:59;;;;;;;3.28;1.80;;;;;;;36.99;6.98;94911.09;5106050;28;20032;-78
2023/02/21 12:10:36;;;;;;;3.35;1.38;;;;;;;34.25;8.47;94904.41;5105280;28;20027;-78
2023/02/21 12:13:19;;;;;;;3.03;1.90;;;;;;;32.02;9.94;94893.50;5106456;28;20137;-78
2023/02/21 12:15:59;;;;;;;6.07;4.05;;;;;;;30.63;10.65;94892.72;5106373;28;20019;-78
2023/02/21 12:18:38;;;;;;;9.82;4.25;;;;;;;28.88;12.11;94884.84;5108516;28;20024;-78
2023/02/21 12:21:06;;;;;;;5.07;2.90;;;;;;;27.88;12.89;94878.59;5098054;28;20020;-77
2023/02/21 12:23:42;;;;;;;5.03;2.95;;;;;;;27.46;13.18;94869.38;5105567;28;20046;-77
2023/02/21 12:26:38;;;;;;;6.43;3.65;;;;;;;26.71;13.77;94856.72;5106274;28;20122;-78
2023/02/21 12:29:39;;;;;;;9.75;6.22;;;;;;;26.33;14.36;94859.06;5088762;28;20019;-78
2023/02/21 12:32:36;;;;;;;9.35;4.70;;;;;;;26.19;14.58;94849.84;5068399;28;20033;-76
2023/02/21 12:35:11;;;;;;;6.35;3.10;;;;;;;25.88;14.50;94849.41;5105954;28;20420;-77
2023/02/21 12:38:04;;;;;;;4.40;2.72;;;;;;;25.60;14.83;94849.13;5105658;28;20031;-78
2023/02/21 12:40:44;;;;;;;3.03;1.85;;;;;;;24.82;15.46;94849.06;5105393;28;20038;-77
2023/02/21 12:43:35;;;;;;;2.85;1.58;;;;;;;24.30;15.91;94841.81;5107231;28;20095;-78
2023/02/21 12:46:11;;;;;;;5.45;1.52;;;;;;;23.55;16.46;94839.56;5105258;28;20028;-77
2023/02/21 12:48:41;;;;;;;3.15;1.30;;;;;;;23.27;16.79;94848.25;5106742;28;20118;-77
2023/02/21 12:51:11;;;;;;;3.70;2.00;;;;;;;23.16;16.63;94836.38;5088276;28;20038;-77
2023/02/21 12:53:43;;;;;;;3.83;1.63;;;;;;;23.00;17.23;94832.44;5104777;28;20019;-77
2023/02/21 12:56:13;;;;;;;3.38;1.73;;;;;;;22.74;17.40;94841.25;5107790;28;20031;-77
2023/02/21 12:58:54;;;;;;;6.15;2.60;;;;;;;22.55;17.71;94829.91;5106628;28;20039;-76
2023/02/21 13:01:23;;;;;;;3.95;1.83;;;;;;;22.27;17.85;94828.00;5106770;27;20081;-77
2023/02/21 13:04:17;;;;;;;4.07;1.70;;;;;;;21.99;17.93;94835.75;5105359;28;20487;-75
2023/02/21 13:07:06;;;;;;;4.20;2.15;;;;;;;21.76;18.59;94829.47;5105945;28;20101;-77
2023/02/21 13:09:46;;;;;;;4.85;2.33;;;;;;;21.78;18.47;94820.56;5106594;28;20027;-78
2023/02/21 13:12:18;;;;;;;4.13;2.13;;;;;;;21.73;18.21;94824.88;5088052;28;20410;-77
2023/02/21 13:14:57;;;;;;;3.28;2.05;;;;;;;21.51;18.73;94814.53;5104724;28;20019;-77
2023/02/21 13:17:24;;;;;;;3.88;2.20;;;;;;;21.52;18.69;94815.28;5087342;28;20103;-77
2023/02/21 13:19:57;;;;;;;4.43;1.67;;;;;;;21.45;18.77;94817.34;5086775;28;20035;-76
2023/02/21 13:26:12;;;;;;;3.60;1.65;;;;;;;21.51;18.51;94813.78;5112535;28;20119;-77
2023/02/21 13:28:38;;;;;;;6.30;3.00;;;;;;;21.35;18.66;94812.53;5106278;28;20107;-78
2023/02/21 13:31:05;;;;;;;3.65;1.40;;;;;;;21.16;18.96;94813.03;5088041;28;20305;-76
2023/02/21 13:33:48;;;;;;;4.10;2.50;;;;;;;21.11;18.70;94802.63;5104272;28;20034;-77
2023/02/21 13:36:31;;;;;;;4.07;2.00;;;;;;;20.90;19.22;94804.91;5086695;28;20054;-77
2023/02/21 13:39:20;;;;;;;3.85;2.58;;;;;;;20.88;18.90;94796.28;5106341;28;20023;-76
2023/02/21 13:41:57;;;;;;;2.33;1.58;;;;;;;20.83;18.86;94802.63;5103925;28;20105;-76
2023/02/21 13:44:36;;;;;;;5.22;3.30;;;;;;;20.71;19.42;94789.16;5103887;28;20043;-77
2023/02/21 13:47:05;;;;;;;3.15;1.55;;;;;;;20.48;19.25;94789.16;5087407;28;20035;-77
2023/02/21 13:49:37;;;;;;;3.05;1.73;;;;;;;20.45;19.64;94789.34;5105768;28;20028;-77
2023/02/21 13:52:23;;;;;;;5.28;2.30;;;;;;;20.39;19.73;94786.56;5104358;28;20047;-77
2023/02/21 13:55:14;;;;;;;2.00;1.27;;;;;;;20.26;19.32;94778.66;5104910;28;20465;-77
2023/02/21 13:57:45;;;;;;;3.53;1.63;;;;;;;20.25;19.80;94779.94;5105235;28;20098;-78
2023/02/21 14:00:33;;;;;;;4.75;1.70;;;;;;;20.32;19.53;94781.47;5103770;28;20092;-76
2023/02/21 14:03:17;;;;;;;2.22;1.50;;;;;;;20.34;19.57;94770.56;5098880;28;20093;-76
2023/02/21 14:09:01;;;;;;;4.60;2.00;;;;;;;20.34;19.36;94773.34;5105438;28;20069;-77
2023/02/21 14:11:35;;;;;;;4.68;1.60;;;;;;;20.24;19.38;94775.59;5095381;28;20039;-77
2023/02/21 14:14:17;;;;;;;2.45;1.58;;;;;;;20.15;19.29;94776.59;5104050;28;20517;-77
2023/02/21 14:17:01;;;;;;;2.50;1.30;;;;;;;19.98;19.09;94772.25;5103852;28;20024;-76
2023/02/21 14:19:39;;;;;;;5.72;1.75;;;;;;;19.88;19.08;94771.69;5103626;28;20036;-77